createdAt,value
2019-05-30T00:00:41.204Z,2.95
2019-05-30T00:05:50.364Z,4.47
2019-05-30T00:11:00.606Z,4.24
2019-05-30T00:16:08.324Z,5.07
2019-05-30T00:21:17.413Z,5.46
2019-05-30T00:26:26.567Z,4.14
2019-05-30T00:31:35.654Z,5.01
2019-05-30T00:36:44.804Z,5.39
2019-05-30T00:41:53.874Z,6.66
2019-05-30T00:47:04.324Z,7.90
2019-05-30T00:52:11.684Z,8.24
2019-05-30T00:57:20.899Z,7.85
2019-05-30T01:02:29.990Z,8.80
2019-05-30T01:07:39.132Z,10.08
2019-05-30T01:12:48.222Z,8.14
2019-05-30T01:17:57.417Z,8.98
2019-05-30T01:23:07.498Z,9.56
2019-05-30T01:28:15.415Z,15.14
2019-05-30T01:33:24.460Z,8.56
2019-05-30T01:38:33.711Z,15.17
2019-05-30T01:43:42.772Z,12.27
2019-05-30T01:48:51.952Z,13.31
2019-05-30T01:54:01.043Z,15.01
2019-05-30T01:59:10.200Z,13.47
2019-05-30T02:04:19.306Z,13.96
2019-05-30T02:09:28.620Z,12.07
2019-05-30T02:14:37.694Z,18.47
2019-05-30T02:19:46.980Z,16.14
2019-05-30T02:24:56.077Z,12.72
2019-05-30T02:30:06.636Z,16.80
2019-05-30T02:35:13.854Z,17.72
2019-05-30T02:40:23.021Z,15.06
2019-05-30T02:45:32.098Z,18.71
2019-05-30T02:50:41.362Z,18.21
2019-05-30T02:55:49.207Z,15.86
2019-05-30T03:00:58.459Z,24.94
2019-05-30T03:06:09.268Z,19.98
2019-05-30T03:11:16.322Z,22.24
2019-05-30T03:16:25.416Z,22.52
2019-05-30T03:21:34.687Z,26.04
2019-05-30T03:26:46.043Z,33.56
2019-05-30T03:31:45.293Z,35.43
2019-05-30T03:36:54.344Z,31.61
2019-05-30T03:42:04.531Z,40.90
2019-05-30T03:47:13.414Z,41.42
2019-05-30T03:52:20.928Z,48.58
2019-05-30T03:57:29.979Z,52.41
2019-05-30T04:02:56.133Z,54.88
2019-05-30T04:07:47.823Z,36.35
2019-05-30T04:12:56.979Z,53.35
2019-05-30T04:18:06.983Z,48.15
2019-05-30T04:23:15.306Z,58.18
2019-05-30T04:28:23.385Z,48.23
2019-05-30T04:33:33.718Z,44.46
2019-05-30T04:38:41.156Z,50.59
2019-05-30T04:43:50.316Z,34.67
2019-05-30T04:48:59.408Z,49.50
2019-05-30T04:54:10.199Z,52.05
2019-05-30T04:59:19.263Z,56.71
2019-05-30T05:04:25.999Z,55.04
2019-05-30T05:09:35.093Z,55.73
2019-05-30T05:14:44.250Z,55.36
2019-05-30T05:19:53.335Z,49.46
2019-05-30T05:25:02.502Z,40.64
2019-05-30T05:30:11.610Z,52.04
2019-05-30T05:35:20.971Z,54.12
2019-05-30T05:40:29.952Z,45.31
2019-05-30T05:45:39.230Z,42.25
2019-05-30T05:50:48.333Z,41.74
2019-05-30T05:55:57.470Z,35.89
2019-05-30T06:01:06.573Z,31.86
2019-05-30T06:06:15.706Z,35.70
2019-05-30T06:11:24.830Z,29.82
2019-05-30T06:16:33.977Z,29.88
2019-05-30T06:21:53.525Z,30.23
2019-05-30T06:26:51.908Z,33.06
2019-05-30T06:32:00.976Z,32.19
2019-05-30T06:37:12.140Z,25.41
2019-05-30T06:42:19.550Z,28.58
2019-05-30T06:47:28.457Z,24.17
2019-05-30T06:52:36.180Z,20.97
2019-05-30T06:57:45.310Z,24.93
2019-05-30T07:02:54.418Z,21.94
2019-05-30T07:08:03.569Z,22.13
2019-05-30T07:13:12.613Z,22.10
2019-05-30T07:18:21.899Z,20.93
2019-05-30T07:23:32.017Z,19.03
2019-05-30T07:28:39.770Z,20.28
2019-05-30T07:33:48.852Z,19.98
2019-05-30T07:38:58.104Z,18.06
2019-05-30T07:44:07.246Z,22.62
2019-05-30T07:49:16.480Z,14.75
2019-05-30T07:54:26.736Z,17.47
2019-05-30T07:59:34.631Z,15.34
2019-05-30T08:04:46.215Z,17.16
2019-05-30T08:09:51.646Z,15.48
2019-05-30T08:15:00.747Z,16.07
2019-05-30T08:20:09.920Z,16.81
2019-05-30T08:25:19.025Z,14.78
2019-05-30T08:30:28.346Z,15.38
2019-05-30T08:35:46.696Z,16.15
2019-05-30T08:40:45.951Z,13.48
2019-05-30T08:45:55.110Z,15.79
2019-05-30T08:51:04.404Z,14.75
2019-05-30T08:56:13.478Z,14.26
2019-05-30T09:01:22.680Z,14.15
2019-05-30T09:06:31.770Z,12.21
2019-05-30T09:11:42.245Z,10.05
2019-05-30T09:16:50.761Z,12.19
2019-05-30T09:21:58.369Z,14.57
2019-05-30T09:27:07.435Z,13.22
2019-05-30T09:32:16.606Z,12.03
2019-05-30T09:37:25.735Z,13.30
2019-05-30T09:42:34.880Z,11.23
2019-05-30T09:47:45.306Z,11.89
2019-05-30T09:52:52.682Z,9.80
2019-05-30T09:58:01.881Z,10.81
2019-05-30T10:03:11.084Z,11.49
2019-05-30T10:08:20.230Z,12.67
2019-05-30T10:13:29.512Z,11.55
2019-05-30T10:18:38.625Z,11.80
2019-05-30T10:23:49.280Z,7.99
2019-05-30T10:28:57.398Z,11.46
2019-05-30T10:34:05.360Z,13.04
2019-05-30T10:39:14.483Z,13.05
2019-05-30T10:44:23.734Z,12.99
2019-05-30T10:49:35.058Z,11.58
2019-05-30T10:54:41.584Z,11.87
2019-05-30T10:59:50.855Z,13.56
2019-05-30T11:04:59.824Z,13.80
2019-05-30T11:10:08.925Z,12.45
2019-05-30T11:15:18.162Z,14.42
2019-05-30T11:20:27.267Z,15.59
2019-05-30T11:25:36.487Z,11.24
2019-05-30T11:30:45.611Z,11.40
2019-05-30T11:35:55.092Z,11.77
2019-05-30T11:41:03.417Z,11.59
2019-05-30T11:46:12.893Z,11.38
2019-05-30T11:51:22.053Z,7.54
2019-05-30T11:56:31.237Z,10.78
2019-05-30T12:01:40.416Z,9.24
2019-05-30T12:06:51.105Z,8.16
2019-05-30T12:11:59.244Z,7.30
2019-05-30T12:17:06.961Z,9.24
2019-05-30T12:22:16.097Z,10.36
2019-05-30T12:27:25.238Z,9.04
2019-05-30T12:32:34.366Z,8.76
2019-05-30T12:37:54.174Z,9.98
2019-05-30T12:42:55.535Z,6.09
2019-05-30T12:48:01.302Z,12.34
2019-05-30T12:53:10.049Z,10.70
2019-05-30T12:58:19.376Z,9.11
2019-05-30T13:03:28.499Z,9.34
2019-05-30T13:08:37.688Z,10.86
2019-05-30T13:13:46.853Z,13.83
2019-05-30T13:18:55.994Z,12.19
2019-05-30T13:24:06.003Z,10.27
2019-05-30T13:29:13.763Z,11.10
2019-05-30T13:34:22.906Z,10.28
2019-05-30T13:39:32.066Z,9.58
2019-05-30T13:44:41.159Z,11.68
2019-05-30T13:49:50.371Z,9.78
2019-05-30T13:54:59.464Z,10.87
2019-05-30T14:00:08.636Z,12.80
2019-05-30T14:05:17.780Z,10.82
2019-05-30T14:10:26.908Z,13.19
2019-05-30T14:15:35.990Z,10.48
2019-05-30T14:20:45.198Z,9.67
2019-05-30T14:25:54.306Z,8.01
2019-05-30T14:31:04.961Z,7.62
2019-05-30T14:36:14.250Z,10.33
2019-05-30T14:41:20.887Z,5.57
2019-05-30T14:46:29.985Z,7.75
2019-05-30T14:51:39.146Z,5.76
2019-05-30T14:56:48.291Z,5.10
2019-05-30T15:01:57.420Z,5.70
2019-05-30T15:07:07.417Z,5.13
2019-05-30T15:12:15.224Z,5.57
2019-05-30T15:17:24.319Z,6.82
2019-05-30T15:22:33.510Z,6.77
2019-05-30T15:27:43.824Z,5.47
2019-05-30T15:32:43.843Z,6.26
2019-05-30T15:37:52.804Z,6.52
2019-05-30T15:43:02.005Z,6.44
2019-05-30T15:48:12.254Z,5.56
2019-05-30T15:53:19.910Z,6.33
2019-05-30T15:58:29.032Z,7.82
2019-05-30T16:03:38.185Z,6.76
2019-05-30T16:08:47.285Z,6.79
2019-05-30T16:13:56.515Z,8.54
2019-05-30T16:19:15.508Z,7.45
2019-05-30T16:24:14.582Z,7.00
2019-05-30T16:29:23.534Z,7.40
2019-05-30T16:34:33.000Z,5.64
2019-05-30T16:39:41.997Z,10.08
2019-05-30T16:44:51.480Z,9.02
2019-05-30T16:50:00.493Z,11.78
2019-05-30T16:55:09.716Z,9.40
2019-05-30T17:00:19.935Z,8.96
2019-05-30T17:05:27.495Z,11.59
2019-05-30T17:10:36.599Z,9.75
2019-05-30T17:15:45.869Z,12.72
2019-05-30T17:20:54.982Z,11.22
2019-05-30T17:26:04.194Z,12.03
2019-05-30T17:31:13.295Z,10.66
2019-05-30T17:36:22.604Z,11.62
2019-05-30T17:41:31.750Z,13.65
2019-05-30T17:46:40.899Z,10.86
2019-05-30T17:51:50.059Z,10.95
2019-05-30T17:56:59.370Z,12.60
2019-05-30T18:02:08.478Z,10.91
2019-05-30T18:07:17.741Z,13.00
2019-05-30T18:12:27.104Z,12.15
2019-05-30T18:17:35.992Z,13.46
2019-05-30T18:22:45.094Z,14.27
2019-05-30T18:27:54.350Z,14.46
2019-05-30T18:33:03.675Z,11.69
2019-05-30T18:38:12.866Z,12.33
2019-05-30T18:43:22.643Z,11.63
2019-05-30T18:48:31.544Z,8.39
2019-05-30T18:53:39.329Z,11.28
2019-05-30T18:58:48.550Z,8.87
2019-05-30T19:03:57.658Z,7.65
2019-05-30T19:09:06.988Z,11.78
2019-05-30T19:14:19.090Z,12.53
2019-05-30T19:19:18.267Z,6.16
2019-05-30T19:24:28.147Z,8.73
2019-05-30T19:29:37.052Z,10.59
2019-05-30T19:34:44.806Z,11.90
2019-05-30T19:39:54.114Z,9.40
2019-05-30T19:45:03.203Z,9.98
2019-05-30T19:50:12.409Z,10.57
2019-05-30T19:55:21.771Z,11.85
2019-05-30T20:00:31.966Z,11.14
2019-05-30T20:05:40.904Z,10.93
2019-05-30T20:10:48.617Z,10.23
2019-05-30T20:15:56.308Z,12.35
2019-05-30T20:21:05.772Z,10.82
2019-05-30T20:26:15.043Z,10.95
2019-05-30T20:31:22.918Z,10.47
2019-05-30T20:36:32.269Z,10.97
2019-05-30T20:41:41.527Z,11.90
2019-05-30T20:46:50.642Z,13.24
2019-05-30T20:51:59.792Z,10.90
2019-05-30T20:57:08.901Z,12.27
2019-05-30T21:02:18.057Z,11.88
2019-05-30T21:07:27.130Z,13.19
2019-05-30T21:12:37.735Z,10.66
2019-05-30T21:17:46.081Z,11.81
2019-05-30T21:22:53.837Z,11.18
2019-05-30T21:28:02.942Z,12.65
2019-05-30T21:33:12.362Z,10.01
2019-05-30T21:38:21.377Z,11.13
2019-05-30T21:43:30.566Z,10.50
2019-05-30T21:48:40.810Z,12.74
2019-05-30T21:53:48.366Z,13.30
2019-05-30T21:58:57.475Z,13.75
2019-05-30T22:04:06.834Z,13.44
2019-05-30T22:09:15.922Z,13.50
2019-05-30T22:14:25.346Z,14.17
2019-05-30T22:19:34.486Z,14.46
2019-05-30T22:24:44.203Z,14.83
2019-05-30T22:29:52.686Z,13.66
2019-05-30T22:35:01.748Z,16.34
2019-05-30T22:40:10.839Z,15.31
2019-05-30T22:45:19.971Z,13.84
2019-05-30T22:50:29.074Z,17.07
2019-05-30T22:55:38.267Z,16.78
2019-05-30T23:00:47.866Z,17.70
2019-05-30T23:05:56.030Z,16.25
2019-05-30T23:11:05.111Z,18.47
2019-05-30T23:16:14.258Z,17.50
2019-05-30T23:21:23.350Z,17.16
2019-05-30T23:26:32.499Z,16.92
2019-05-30T23:31:41.554Z,17.97
2019-05-30T23:36:50.703Z,16.58
2019-05-30T23:41:59.781Z,18.50
2019-05-30T23:47:08.932Z,19.53
2019-05-30T23:52:17.994Z,18.48
2019-05-30T23:57:27.115Z,15.35
